createdAt,value
2022-11-04T00:01:49.200Z,4.93
2022-11-04T00:04:19.355Z,4.80
2022-11-04T00:06:50.598Z,5.20
2022-11-04T00:09:21.855Z,4.50
2022-11-04T00:12:07.641Z,5.20
2022-11-04T00:14:36.585Z,4.63
2022-11-04T00:17:20.003Z,4.63
2022-11-04T00:20:06.569Z,4.43
2022-11-04T00:22:51.919Z,4.33
2022-11-04T00:25:38.725Z,4.23
2022-11-04T00:28:27.406Z,4.10
2022-11-04T00:30:56.719Z,3.53
2022-11-04T00:33:26.854Z,3.80
2022-11-04T00:35:57.529Z,4.13
2022-11-04T00:38:26.560Z,4.43
2022-11-04T00:40:55.719Z,4.93
2022-11-04T00:43:23.534Z,5.23
2022-11-04T00:45:51.342Z,4.60
2022-11-04T00:48:20.323Z,4.80
2022-11-04T00:50:48.144Z,4.90
2022-11-04T00:53:16.077Z,4.67
2022-11-04T00:55:44.333Z,5.30
2022-11-04T00:58:13.576Z,4.73
2022-11-04T01:00:41.501Z,4.73
2022-11-04T01:03:09.901Z,4.47
2022-11-04T01:05:38.764Z,4.80
2022-11-04T01:08:06.734Z,5.03
2022-11-04T01:10:36.247Z,4.60
2022-11-04T01:13:04.240Z,4.33
2022-11-04T01:15:33.479Z,4.17
2022-11-04T01:18:01.424Z,3.83
2022-11-04T01:20:29.410Z,4.30
2022-11-04T01:22:57.288Z,3.83
2022-11-04T01:25:25.152Z,3.90
2022-11-04T01:27:53.018Z,3.60
2022-11-04T01:30:20.943Z,3.50
2022-11-04T01:32:50.112Z,1.93
2022-11-04T01:35:18.055Z,2.90
2022-11-04T01:37:45.826Z,2.50
2022-11-04T01:40:15.112Z,2.37
2022-11-04T01:42:43.014Z,1.97
2022-11-04T01:45:14.915Z,2.40
2022-11-04T01:47:47.220Z,1.90
2022-11-04T01:50:21.741Z,1.40
2022-11-04T01:52:51.973Z,1.57
2022-11-04T01:55:24.672Z,1.47
2022-11-04T01:57:56.205Z,1.30
2022-11-04T02:00:24.297Z,1.30
2022-11-04T02:02:58.097Z,1.57
2022-11-04T02:05:28.292Z,1.40
2022-11-04T02:07:59.130Z,1.20
2022-11-04T02:10:29.213Z,1.50
2022-11-04T02:12:58.246Z,1.20
2022-11-04T02:15:36.885Z,1.17
2022-11-04T02:18:29.547Z,1.20
2022-11-04T02:21:20.354Z,1.30
2022-11-04T02:24:22.341Z,1.20
2022-11-04T02:27:04.842Z,1.10
2022-11-04T02:29:55.585Z,1.10
2022-11-04T02:32:33.252Z,1.10
2022-11-04T02:35:06.363Z,1.40
2022-11-04T02:37:42.229Z,1.10
2022-11-04T02:40:22.456Z,0.93
2022-11-04T02:42:58.556Z,1.13
2022-11-04T02:45:36.860Z,1.10
2022-11-04T02:48:11.070Z,1.40
2022-11-04T02:50:47.393Z,1.00
2022-11-04T02:53:21.649Z,1.30
2022-11-04T02:55:54.139Z,0.90
2022-11-04T02:58:28.336Z,1.20
2022-11-04T03:01:00.302Z,0.87
2022-11-04T03:03:33.753Z,1.07
2022-11-04T03:06:04.051Z,0.93
2022-11-04T03:08:35.030Z,1.10
2022-11-04T03:11:10.038Z,1.03
2022-11-04T03:13:43.400Z,0.90
2022-11-04T03:16:16.364Z,0.90
2022-11-04T03:18:56.439Z,0.90
2022-11-04T03:21:26.779Z,1.00
2022-11-04T03:23:55.540Z,0.73
2022-11-04T03:26:29.685Z,0.80
2022-11-04T03:29:11.145Z,0.93
2022-11-04T03:31:46.188Z,0.70
2022-11-04T03:34:14.208Z,0.80
2022-11-04T03:36:42.247Z,0.70
2022-11-04T03:39:10.336Z,0.70
2022-11-04T03:41:43.718Z,0.80
2022-11-04T03:44:11.961Z,0.70
2022-11-04T03:46:41.347Z,0.60
2022-11-04T03:49:11.117Z,0.60
2022-11-04T03:51:39.004Z,0.60
2022-11-04T03:54:08.079Z,0.60
2022-11-04T03:57:05.465Z,0.60
2022-11-04T03:59:48.479Z,0.57
2022-11-04T04:02:22.267Z,0.80
2022-11-04T04:04:58.087Z,0.57
2022-11-04T04:07:33.537Z,0.60
2022-11-04T04:10:31.671Z,0.67
2022-11-04T04:13:03.677Z,0.80
2022-11-04T04:15:39.310Z,0.63
2022-11-04T04:18:14.270Z,0.83
2022-11-04T04:20:47.199Z,0.70
2022-11-04T04:23:37.084Z,0.60
2022-11-04T04:26:26.935Z,1.00
2022-11-04T04:28:57.217Z,0.80
2022-11-04T04:31:46.517Z,0.80
2022-11-04T04:34:16.524Z,0.90
2022-11-04T04:36:47.912Z,1.00
2022-11-04T04:39:37.234Z,0.70
2022-11-04T04:42:23.517Z,0.87
2022-11-04T04:45:00.642Z,0.70
2022-11-04T04:47:33.049Z,0.90
2022-11-04T04:50:03.087Z,0.97
2022-11-04T04:52:33.265Z,0.83
2022-11-04T04:55:01.206Z,0.93
2022-11-04T04:57:29.068Z,0.80
2022-11-04T04:59:56.902Z,1.00
2022-11-04T05:02:24.797Z,0.83
2022-11-04T05:04:52.746Z,0.83
2022-11-04T05:07:21.865Z,0.90
2022-11-04T05:09:49.952Z,0.80
2022-11-04T05:12:18.114Z,1.03
2022-11-04T05:14:45.855Z,1.20
2022-11-04T05:17:13.876Z,1.10
2022-11-04T05:19:42.025Z,1.20
2022-11-04T05:22:10.004Z,1.20
2022-11-04T05:24:39.193Z,1.20
2022-11-04T05:27:07.066Z,1.10
2022-11-04T05:29:34.916Z,1.40
2022-11-04T05:32:02.676Z,1.30
2022-11-04T05:34:30.760Z,1.30
2022-11-04T05:37:00.461Z,1.47
2022-11-04T05:39:28.434Z,1.63
2022-11-04T05:41:58.654Z,1.50
2022-11-04T05:44:26.430Z,1.23
2022-11-04T05:46:54.214Z,1.33
2022-11-04T05:49:22.084Z,1.63
2022-11-04T05:51:49.899Z,1.50
2022-11-04T05:54:17.805Z,1.43
2022-11-04T05:56:45.652Z,1.50
2022-11-04T05:59:14.943Z,1.70
2022-11-04T06:01:46.225Z,1.90
2022-11-04T06:04:16.658Z,1.47
2022-11-04T06:06:45.341Z,1.60
2022-11-04T06:09:13.348Z,1.53
2022-11-04T06:11:41.545Z,1.63
2022-11-04T06:14:10.277Z,1.80
2022-11-04T06:16:40.866Z,1.90
2022-11-04T06:19:13.463Z,2.00
2022-11-04T06:21:44.118Z,1.90
2022-11-04T06:24:12.233Z,1.87
2022-11-04T06:26:40.078Z,1.90
2022-11-04T06:29:08.830Z,2.03
2022-11-04T06:31:37.390Z,2.23
2022-11-04T06:34:06.732Z,2.20
2022-11-04T06:36:34.705Z,2.40
2022-11-04T06:39:04.882Z,2.70
2022-11-04T06:41:33.025Z,2.30
2022-11-04T06:44:01.035Z,2.50
2022-11-04T06:46:32.610Z,2.77
2022-11-04T06:49:00.717Z,2.77
2022-11-04T06:51:31.796Z,2.40
2022-11-04T06:53:59.613Z,2.77
2022-11-04T06:56:27.610Z,3.00
2022-11-04T06:58:56.130Z,2.20
2022-11-04T07:01:26.921Z,2.57
2022-11-04T07:03:57.885Z,2.70
2022-11-04T07:06:27.176Z,3.07
2022-11-04T07:08:59.080Z,2.80
2022-11-04T07:11:29.394Z,2.83
2022-11-04T07:13:57.316Z,2.90
2022-11-04T07:16:26.213Z,2.63
2022-11-04T07:18:55.437Z,2.50
2022-11-04T07:21:23.736Z,2.63
2022-11-04T07:23:51.639Z,2.90
2022-11-04T07:26:21.548Z,3.00
2022-11-04T07:28:49.586Z,2.80
2022-11-04T07:31:18.032Z,2.70
2022-11-04T07:33:49.861Z,2.67
2022-11-04T07:36:19.050Z,3.30
2022-11-04T07:38:47.756Z,2.17
2022-11-04T07:41:16.443Z,2.00
2022-11-04T07:43:49.564Z,2.10
2022-11-04T07:46:17.452Z,1.90
2022-11-04T07:48:45.318Z,2.13
2022-11-04T07:51:17.266Z,1.83
2022-11-04T07:53:45.284Z,2.47
2022-11-04T07:56:14.437Z,1.80
2022-11-04T07:58:42.959Z,1.90
2022-11-04T08:01:14.292Z,1.73
2022-11-04T08:03:42.871Z,1.90
2022-11-04T08:06:13.689Z,2.00
2022-11-04T08:08:43.307Z,1.80
2022-11-04T08:11:17.832Z,1.93
2022-11-04T08:13:47.264Z,1.90
2022-11-04T08:16:18.931Z,1.93
2022-11-04T08:18:48.543Z,2.37
2022-11-04T08:21:16.922Z,2.20
2022-11-04T08:23:46.051Z,1.80
2022-11-04T08:26:17.778Z,1.73
2022-11-04T08:28:46.388Z,1.70
2022-11-04T08:31:18.966Z,2.03
2022-11-04T08:33:47.970Z,1.80
2022-11-04T08:36:19.360Z,1.80
2022-11-04T08:38:48.132Z,2.43
2022-11-04T08:41:19.649Z,2.17
2022-11-04T08:43:56.635Z,1.57
2022-11-04T08:46:25.891Z,2.03
2022-11-04T08:48:53.693Z,1.60
2022-11-04T08:51:24.781Z,2.03
2022-11-04T08:53:53.095Z,2.70
2022-11-04T08:56:22.526Z,2.20
2022-11-04T08:58:51.532Z,1.97
2022-11-04T09:01:20.705Z,1.93
2022-11-04T09:03:51.156Z,1.43
2022-11-04T09:06:21.709Z,1.57
2022-11-04T09:08:50.396Z,1.30
2022-11-04T09:11:19.112Z,1.50
2022-11-04T09:13:47.734Z,1.50
2022-11-04T09:16:19.257Z,1.40
2022-11-04T09:18:47.436Z,1.43
2022-11-04T09:21:16.798Z,2.10
2022-11-04T09:23:44.785Z,1.87
2022-11-04T09:26:14.871Z,1.87
2022-11-04T09:28:43.501Z,1.90
2022-11-04T09:31:13.475Z,1.77
2022-11-04T09:33:41.944Z,2.00
2022-11-04T09:36:11.719Z,2.00
2022-11-04T09:38:42.899Z,1.70
2022-11-04T09:41:37.385Z,1.80
2022-11-04T09:44:16.444Z,2.57
2022-11-04T09:46:48.443Z,1.70
2022-11-04T09:49:17.682Z,1.37
2022-11-04T09:51:56.584Z,1.70
2022-11-04T09:54:31.426Z,1.43
2022-11-04T09:57:02.829Z,1.50
2022-11-04T09:59:35.366Z,1.87
2022-11-04T10:02:44.795Z,1.43
2022-11-04T10:05:35.704Z,1.47
2022-11-04T10:08:36.680Z,1.70
2022-11-04T10:11:16.193Z,1.30
2022-11-04T10:13:59.480Z,1.50
2022-11-04T10:16:42.744Z,1.20
2022-11-04T10:19:31.527Z,1.50
2022-11-04T10:22:05.786Z,1.40
2022-11-04T10:24:42.674Z,1.30
2022-11-04T10:27:18.371Z,1.10
2022-11-04T10:29:49.619Z,1.20
2022-11-04T10:32:22.716Z,1.30
2022-11-04T10:34:57.331Z,0.90
2022-11-04T10:37:27.161Z,1.00
2022-11-04T10:40:03.638Z,1.03
2022-11-04T10:42:34.110Z,1.07
2022-11-04T10:45:03.042Z,0.97
2022-11-04T10:47:47.954Z,1.10
2022-11-04T10:50:37.657Z,1.00
2022-11-04T10:53:17.324Z,1.70
2022-11-04T10:55:54.281Z,1.10
2022-11-04T10:58:26.823Z,1.03
2022-11-04T11:00:57.423Z,1.33
2022-11-04T11:03:32.365Z,1.33
2022-11-04T11:06:14.183Z,1.20
2022-11-04T11:08:43.299Z,1.20
2022-11-04T11:11:12.648Z,1.10
2022-11-04T11:13:43.605Z,1.20
2022-11-04T11:16:15.313Z,1.00
2022-11-04T11:18:43.199Z,1.40
2022-11-04T11:21:14.223Z,1.20
2022-11-04T11:23:45.292Z,1.30
2022-11-04T11:26:15.711Z,1.00
2022-11-04T11:28:55.806Z,1.10
2022-11-04T11:31:26.934Z,1.13
2022-11-04T11:33:58.163Z,0.90
2022-11-04T11:36:27.892Z,0.90
2022-11-04T11:39:01.122Z,0.90
2022-11-04T11:41:32.328Z,1.27
2022-11-04T11:44:05.856Z,0.97
2022-11-04T11:46:36.365Z,1.20
2022-11-04T11:49:06.537Z,1.20
2022-11-04T11:51:36.943Z,1.13
2022-11-04T11:54:39.652Z,0.90
2022-11-04T11:57:25.310Z,1.07
2022-11-04T12:02:53.182Z,1.30
2022-11-04T12:11:25.583Z,1.20
2022-11-04T12:13:57.126Z,1.10
2022-11-04T12:16:35.511Z,1.00
2022-11-04T12:19:20.556Z,1.07
2022-11-04T12:21:56.138Z,1.03
2022-11-04T12:24:33.124Z,1.50
2022-11-04T12:27:12.820Z,0.93
2022-11-04T12:29:49.845Z,0.97
2022-11-04T12:32:27.976Z,1.40
2022-11-04T12:35:12.065Z,1.40
2022-11-04T12:37:55.583Z,0.90
2022-11-04T12:40:28.621Z,1.60
2022-11-04T12:43:16.987Z,1.07
2022-11-04T12:45:59.935Z,1.30
2022-11-04T12:48:42.067Z,1.40
2022-11-04T12:51:15.332Z,1.63
2022-11-04T12:54:09.732Z,1.30
2022-11-04T12:56:39.470Z,1.20
2022-11-04T12:59:26.399Z,1.37
2022-11-04T13:01:58.154Z,1.20
2022-11-04T13:04:33.828Z,1.30
2022-11-04T13:07:06.575Z,1.40
2022-11-04T13:09:38.849Z,1.17
2022-11-04T13:12:12.015Z,1.70
2022-11-04T13:14:46.057Z,1.00
2022-11-04T13:17:20.778Z,1.20
2022-11-04T13:19:52.871Z,0.73
2022-11-04T13:22:24.592Z,0.77
2022-11-04T13:24:56.640Z,1.17
2022-11-04T13:27:27.979Z,1.10
2022-11-04T13:30:06.419Z,1.50
2022-11-04T13:32:39.506Z,1.20
2022-11-04T13:35:17.819Z,1.13
2022-11-04T13:37:55.606Z,1.40
2022-11-04T13:40:27.661Z,1.47
2022-11-04T13:43:39.197Z,1.20
2022-11-04T13:46:19.977Z,1.20
2022-11-04T13:49:05.709Z,1.40
2022-11-04T13:51:44.354Z,1.20
2022-11-04T13:54:28.714Z,1.30
2022-11-04T13:57:22.083Z,1.20
2022-11-04T14:00:24.147Z,1.37
2022-11-04T14:02:52.430Z,1.53
2022-11-04T14:05:57.141Z,1.37
2022-11-04T14:08:26.381Z,1.20
2022-11-04T14:11:07.606Z,1.20
2022-11-04T14:14:10.971Z,1.60
2022-11-04T14:16:43.913Z,1.50
2022-11-04T14:19:56.609Z,2.00
2022-11-04T14:22:34.211Z,1.50
2022-11-04T14:25:20.211Z,1.40
2022-11-04T14:27:49.591Z,1.30
2022-11-04T14:30:33.486Z,1.73
2022-11-04T14:33:04.481Z,1.73
2022-11-04T14:35:33.374Z,1.30
2022-11-04T14:38:07.406Z,1.30
2022-11-04T14:40:53.433Z,2.70
2022-11-04T14:43:33.793Z,1.07
2022-11-04T14:46:03.081Z,1.57
2022-11-04T14:48:32.049Z,1.20
2022-11-04T14:50:59.905Z,1.10
2022-11-04T14:53:32.848Z,1.53
2022-11-04T14:56:23.022Z,1.30
2022-11-04T14:58:59.454Z,1.77
2022-11-04T15:01:34.590Z,1.23
2022-11-04T15:04:12.281Z,2.10
2022-11-04T15:06:54.397Z,1.13
2022-11-04T15:09:25.611Z,1.10
2022-11-04T15:12:21.021Z,1.10
2022-11-04T15:14:48.845Z,1.20
2022-11-04T15:17:20.653Z,1.43
2022-11-04T15:19:52.052Z,1.30
2022-11-04T15:22:20.897Z,1.60
2022-11-04T15:24:50.585Z,1.87
2022-11-04T15:27:29.788Z,1.80
2022-11-04T15:29:59.451Z,1.90
2022-11-04T15:32:28.104Z,1.60
2022-11-04T15:34:57.336Z,1.50
2022-11-04T15:37:28.847Z,1.50
2022-11-04T15:39:59.299Z,2.00
2022-11-04T15:42:40.473Z,1.50
2022-11-04T15:45:28.777Z,1.73
2022-11-04T15:48:40.299Z,1.80
2022-11-04T15:51:20.080Z,1.47
2022-11-04T15:53:52.100Z,1.80
2022-11-04T15:56:22.965Z,1.37
2022-11-04T15:58:54.295Z,1.80
2022-11-04T16:01:22.632Z,1.20
2022-11-04T16:03:53.308Z,1.40
2022-11-04T16:06:34.730Z,1.70
2022-11-04T16:09:06.019Z,1.67
2022-11-04T16:11:33.889Z,1.80
2022-11-04T16:14:26.517Z,1.70
2022-11-04T16:16:55.168Z,2.00
2022-11-04T16:19:26.404Z,1.90
2022-11-04T16:22:01.403Z,1.70
2022-11-04T16:24:32.852Z,1.83
2022-11-04T16:27:01.161Z,1.90
2022-11-04T16:29:32.632Z,2.10
2022-11-04T16:32:17.965Z,3.20
2022-11-04T16:34:46.915Z,3.30
2022-11-04T16:37:15.429Z,2.67
2022-11-04T16:39:45.086Z,2.60
2022-11-04T16:42:14.323Z,2.57
2022-11-04T16:44:48.254Z,2.10
2022-11-04T16:47:16.981Z,2.33
2022-11-04T16:49:45.282Z,2.30
2022-11-04T16:52:15.964Z,2.47
2022-11-04T16:54:43.877Z,2.40
2022-11-04T16:57:14.523Z,2.90
2022-11-04T16:59:44.452Z,2.83
2022-11-04T17:02:27.253Z,3.17
2022-11-04T17:04:55.629Z,3.20
2022-11-04T17:07:35.177Z,4.70
2022-11-04T17:10:17.064Z,9.53
2022-11-04T17:12:45.128Z,9.43
2022-11-04T17:15:16.150Z,7.17
2022-11-04T17:17:44.668Z,3.47
2022-11-04T17:20:16.686Z,3.80
2022-11-04T17:22:45.206Z,3.30
2022-11-04T17:25:18.759Z,3.07
2022-11-04T17:27:46.712Z,2.90
2022-11-04T17:30:17.290Z,2.43
2022-11-04T17:32:46.628Z,2.20
2022-11-04T17:35:15.125Z,1.80
2022-11-04T17:37:43.817Z,1.80
2022-11-04T17:40:16.451Z,2.20
2022-11-04T17:43:04.434Z,1.73
2022-11-04T17:45:37.939Z,2.00
2022-11-04T17:48:06.679Z,2.10
2022-11-04T17:50:35.048Z,2.40
2022-11-04T17:53:03.051Z,1.93
2022-11-04T17:55:31.102Z,1.77
2022-11-04T17:57:58.859Z,1.77
2022-11-04T18:00:29.645Z,2.20
2022-11-04T18:02:59.279Z,2.00
2022-11-04T18:05:27.082Z,2.00
2022-11-04T18:07:56.403Z,2.07
2022-11-04T18:10:24.461Z,2.13
2022-11-04T18:12:52.845Z,2.10
2022-11-04T18:15:21.173Z,2.20
2022-11-04T18:17:50.773Z,2.10
2022-11-04T18:20:20.175Z,2.43
2022-11-04T18:22:48.165Z,2.13
2022-11-04T18:25:16.049Z,2.53
2022-11-04T18:27:44.747Z,2.30
2022-11-04T18:30:15.987Z,2.80
2022-11-04T18:32:43.995Z,2.43
2022-11-04T18:35:11.794Z,2.00
2022-11-04T18:37:46.773Z,1.83
2022-11-04T18:40:15.558Z,2.40
2022-11-04T18:42:44.173Z,2.20
2022-11-04T18:45:12.453Z,1.83
2022-11-04T18:47:45.051Z,2.30
2022-11-04T18:50:12.997Z,2.20
2022-11-04T18:52:42.289Z,2.60
2022-11-04T18:55:10.735Z,2.80
2022-11-04T18:57:38.639Z,2.70
2022-11-04T19:00:09.624Z,2.70
2022-11-04T19:02:40.972Z,2.70
2022-11-04T19:05:10.497Z,2.93
2022-11-04T19:07:38.348Z,2.80
2022-11-04T19:10:08.938Z,3.13
2022-11-04T19:12:54.757Z,2.43
2022-11-04T19:15:22.664Z,2.30
2022-11-04T19:17:51.154Z,2.30
2022-11-04T19:20:19.358Z,2.80
2022-11-04T19:22:47.534Z,2.67
2022-11-04T19:25:16.781Z,3.23
2022-11-04T19:27:44.722Z,3.20
2022-11-04T19:30:13.798Z,3.03
2022-11-04T19:32:45.097Z,3.20
2022-11-04T19:35:13.020Z,2.77
2022-11-04T19:37:40.981Z,3.40
2022-11-04T19:40:10.920Z,3.50
2022-11-04T19:42:57.453Z,3.53
2022-11-04T19:45:25.322Z,3.57
2022-11-04T19:47:53.476Z,3.57
2022-11-04T19:50:22.495Z,3.67
2022-11-04T19:52:51.815Z,4.20
2022-11-04T19:55:19.851Z,3.77
2022-11-04T19:57:48.998Z,3.37
2022-11-04T20:00:28.043Z,3.27
2022-11-04T20:02:56.085Z,3.60
2022-11-04T20:05:24.165Z,3.67
2022-11-04T20:07:54.351Z,3.30
2022-11-04T20:10:23.979Z,3.73
2022-11-04T20:13:10.523Z,3.80
2022-11-04T20:15:38.324Z,3.77
2022-11-04T20:18:06.838Z,3.53
2022-11-04T20:20:34.736Z,3.93
2022-11-04T20:23:02.625Z,3.83
2022-11-04T20:25:30.862Z,3.40
2022-11-04T20:28:02.189Z,4.07
2022-11-04T20:30:29.998Z,3.87
2022-11-04T20:32:57.785Z,4.00
2022-11-04T20:35:25.597Z,3.97
2022-11-04T20:37:53.588Z,4.10
2022-11-04T20:40:21.638Z,4.23
2022-11-04T20:42:49.817Z,4.27
2022-11-04T20:45:21.419Z,4.20
2022-11-04T20:47:49.497Z,3.97
2022-11-04T20:50:17.582Z,4.40
2022-11-04T20:52:45.363Z,4.67
2022-11-04T20:55:13.503Z,4.17
2022-11-04T20:57:41.382Z,4.43
2022-11-04T21:00:10.537Z,5.00
2022-11-04T21:02:40.014Z,6.17
2022-11-04T21:05:08.661Z,5.43
2022-11-04T21:07:36.953Z,5.53
2022-11-04T21:10:05.387Z,5.80
2022-11-04T21:12:33.302Z,5.37
2022-11-04T21:15:01.090Z,5.87
2022-11-04T21:17:29.562Z,5.23
2022-11-04T21:19:59.131Z,6.10
2022-11-04T21:22:27.050Z,5.30
2022-11-04T21:24:54.996Z,6.07
2022-11-04T21:27:22.917Z,6.00
2022-11-04T21:29:50.790Z,5.47
2022-11-04T21:32:18.749Z,5.83
2022-11-04T21:34:46.760Z,5.97
2022-11-04T21:37:16.250Z,5.43
2022-11-04T21:39:44.134Z,5.30
2022-11-04T21:42:12.111Z,5.37
2022-11-04T21:44:40.037Z,5.30
2022-11-04T21:47:08.356Z,5.40
2022-11-04T21:49:36.432Z,5.17
2022-11-04T21:52:04.446Z,5.27
2022-11-04T21:54:33.759Z,5.47
2022-11-04T21:57:01.702Z,5.67
2022-11-04T21:59:29.586Z,5.83
2022-11-04T22:01:57.515Z,4.73
2022-11-04T22:04:25.584Z,4.43
2022-11-04T22:06:53.693Z,4.70
2022-11-04T22:09:21.683Z,4.57
2022-11-04T22:11:50.825Z,4.40
2022-11-04T22:14:18.576Z,4.40
2022-11-04T22:16:46.377Z,4.33
2022-11-04T22:19:14.444Z,4.30
2022-11-04T22:21:44.225Z,4.80
2022-11-04T22:24:12.816Z,3.77
2022-11-04T22:26:40.833Z,5.07
2022-11-04T22:29:10.433Z,4.23
2022-11-04T22:31:40.767Z,3.87
2022-11-04T22:34:09.664Z,3.10
2022-11-04T22:36:37.879Z,2.40
2022-11-04T22:39:08.340Z,2.70
2022-11-04T22:41:38.400Z,2.03
2022-11-04T22:44:06.249Z,2.80
2022-11-04T22:46:35.593Z,3.33
2022-11-04T22:49:03.392Z,2.77
2022-11-04T22:51:32.444Z,3.57
2022-11-04T22:54:06.564Z,2.80
2022-11-04T22:56:35.897Z,3.30
2022-11-04T22:59:03.701Z,1.90
2022-11-04T23:01:33.700Z,2.27
2022-11-04T23:04:03.454Z,2.30
2022-11-04T23:06:31.503Z,2.77
2022-11-04T23:09:00.630Z,2.37
2022-11-04T23:11:48.232Z,2.50
2022-11-04T23:14:35.560Z,2.73
2022-11-04T23:17:21.720Z,2.80
2022-11-04T23:19:51.482Z,2.90
2022-11-04T23:22:36.906Z,2.63
2022-11-04T23:25:09.853Z,2.90
2022-11-04T23:27:57.805Z,2.57
2022-11-04T23:30:27.189Z,3.00
2022-11-04T23:32:56.765Z,3.00
2022-11-04T23:35:45.013Z,3.03
2022-11-04T23:38:13.105Z,3.00
2022-11-04T23:40:41.093Z,2.10
2022-11-04T23:43:09.363Z,2.73
2022-11-04T23:45:54.829Z,2.60
2022-11-04T23:48:39.949Z,2.87
2022-11-04T23:51:29.429Z,2.40
2022-11-04T23:54:14.846Z,2.30
2022-11-04T23:57:00.467Z,2.20
2022-11-04T23:59:45.716Z,2.17
